Time;durP1;ratioP1;P1;durP2;ratioP2;P2;SDS_P1;SDS_P2;PMS_P1;PMS_P2;Temp;Humidity;BMP_temperature;BMP_pressure;BME280_temperature;BME280_humidity;BME280_pressure;Samples;Min_cycle;Max_cycle;Signal;HPM_P1;HPM_P2
2021/08/26 00:06:51;;;;;;;3.55;2.60;;;10.00;99.90;;;;;;5051500;28;20126;-73
2021/08/26 00:09:17;;;;;;;4.05;2.60;;;10.00;99.90;;;;;;5051838;28;20048;-73
2021/08/26 00:11:44;;;;;;;5.03;2.70;;;10.00;99.90;;;;;;5051712;28;20029;-73
2021/08/26 00:14:11;;;;;;;3.22;2.13;;;10.00;99.90;;;;;;5051516;28;20021;-73
2021/08/26 00:16:41;;;;;;;4.50;2.38;;;10.00;99.90;;;;;;5051798;28;20036;-73
2021/08/26 00:19:14;;;;;;;6.27;3.17;;;10.00;99.90;;;;;;5051455;28;20083;-73
2021/08/26 00:21:40;;;;;;;5.63;2.45;;;10.00;99.90;;;;;;5051631;28;20021;-73
2021/08/26 00:24:07;;;;;;;4.38;2.58;;;9.90;99.90;;;;;;5051380;28;20082;-73
2021/08/26 00:26:33;;;;;;;4.60;2.80;;;9.90;99.90;;;;;;5051636;28;20508;-72
2021/08/26 00:29:01;;;;;;;5.95;2.63;;;9.90;99.90;;;;;;5051175;28;20040;-73
2021/08/26 00:31:26;;;;;;;4.53;2.70;;;9.90;99.90;;;;;;5051653;28;20116;-73
2021/08/26 00:33:52;;;;;;;5.32;2.42;;;9.90;99.90;;;;;;5051464;28;20112;-73
2021/08/26 00:36:18;;;;;;;3.05;2.25;;;9.80;99.90;;;;;;5051600;28;20044;-73
2021/08/26 00:38:47;;;;;;;4.20;2.58;;;9.80;99.90;;;;;;5051276;28;20112;-72
2021/08/26 00:41:17;;;;;;;3.45;2.53;;;9.80;99.90;;;;;;5055425;28;20097;-73
2021/08/26 00:43:43;;;;;;;4.05;2.42;;;9.80;99.90;;;;;;5055246;28;20017;-73
2021/08/26 00:46:13;;;;;;;3.70;1.98;;;9.80;99.90;;;;;;5055001;28;20044;-73
2021/08/26 00:48:45;;;;;;;4.28;2.20;;;9.70;99.90;;;;;;5054901;28;20057;-73
2021/08/26 00:51:11;;;;;;;3.38;2.10;;;9.70;99.90;;;;;;5055255;28;20055;-73
2021/08/26 00:53:39;;;;;;;2.28;1.70;;;9.60;99.90;;;;;;5054724;28;20075;-73
2021/08/26 00:56:23;;;;;;;2.30;1.92;;;9.60;99.90;;;;;;5054639;28;20239;-74
2021/08/26 00:58:51;;;;;;;2.55;1.77;;;9.60;99.90;;;;;;5054835;28;20045;-74
2021/08/26 01:01:27;;;;;;;2.58;1.55;;;9.60;99.90;;;;;;5054994;28;20487;-73
2021/08/26 01:04:06;;;;;;;2.92;1.73;;;9.50;99.90;;;;;;5054337;28;20063;-73
2021/08/26 01:06:51;;;;;;;2.92;2.10;;;9.50;99.90;;;;;;5054483;28;20037;-73
2021/08/26 01:09:24;;;;;;;2.58;2.03;;;9.40;99.90;;;;;;5054700;28;20104;-73
2021/08/26 01:11:51;;;;;;;3.03;1.92;;;9.40;99.90;;;;;;5054569;28;20102;-72
2021/08/26 01:14:18;;;;;;;3.08;2.22;;;9.40;99.90;;;;;;5054307;28;20057;-72
2021/08/26 01:16:44;;;;;;;4.28;2.53;;;9.40;99.90;;;;;;5054171;28;20453;-73
2021/08/26 01:48:18;;;;;;;4.50;2.38;;;9.10;99.90;;;;;;5053628;28;20029;-75
2021/08/26 01:50:45;;;;;;;2.95;2.17;;;9.10;99.90;;;;;;5052573;28;20052;-74
2021/08/26 01:53:12;;;;;;;3.95;2.30;;;9.10;99.90;;;;;;5053460;28;20116;-78
2021/08/26 01:55:41;;;;;;;4.72;1.85;;;9.10;99.90;;;;;;5053743;28;20396;-72
2021/08/26 01:58:11;;;;;;;3.83;2.17;;;9.10;99.90;;;;;;5053529;28;20033;-73
2021/08/26 02:00:37;;;;;;;4.38;2.10;;;9.10;99.90;;;;;;5053453;28;20028;-73
2021/08/26 02:03:03;;;;;;;3.10;1.75;;;9.00;99.90;;;;;;5053762;28;20033;-74
2021/08/26 02:05:29;;;;;;;2.15;1.70;;;9.00;99.90;;;;;;5053283;28;20436;-74
2021/08/26 02:07:55;;;;;;;2.17;1.70;;;8.90;99.90;;;;;;5053678;28;20053;-74
2021/08/26 02:10:22;;;;;;;2.83;2.05;;;8.90;99.90;;;;;;5053733;28;20075;-74
2021/08/26 02:12:48;;;;;;;2.70;1.63;;;8.90;99.90;;;;;;5053501;28;20021;-72
2021/08/26 02:15:14;;;;;;;3.70;1.92;;;8.80;99.90;;;;;;5053286;28;20025;-75
2021/08/26 02:17:40;;;;;;;2.92;2.20;;;8.80;99.90;;;;;;5053160;28;20013;-75
2021/08/26 02:20:07;;;;;;;3.05;2.13;;;8.80;99.90;;;;;;5053131;28;20464;-75
2021/08/26 02:22:33;;;;;;;2.88;1.80;;;8.80;99.90;;;;;;5053272;28;20021;-75
2021/08/26 02:24:59;;;;;;;3.15;1.95;;;8.80;99.90;;;;;;5052835;28;20541;-75
2021/08/26 02:27:25;;;;;;;3.28;2.13;;;8.80;99.90;;;;;;5053300;28;20063;-75
2021/08/26 02:29:51;;;;;;;3.97;2.53;;;8.80;99.90;;;;;;5052738;28;20488;-75
2021/08/26 02:32:17;;;;;;;4.18;2.03;;;8.70;99.90;;;;;;5052917;28;20029;-75
2021/08/26 02:34:43;;;;;;;2.83;2.05;;;8.70;99.90;;;;;;5053011;28;20017;-75
2021/08/26 02:37:08;;;;;;;4.18;1.98;;;8.70;99.90;;;;;;5053110;28;20396;-75
2021/08/26 02:39:35;;;;;;;2.88;2.15;;;8.60;99.90;;;;;;5052561;28;20415;-75
2021/08/26 02:42:02;;;;;;;7.40;2.92;;;8.60;99.90;;;;;;5053045;28;20032;-75
2021/08/26 02:44:28;;;;;;;4.88;2.65;;;8.50;99.90;;;;;;5052397;28;20122;-75
2021/08/26 02:46:54;;;;;;;5.03;2.80;;;8.50;99.90;;;;;;5052875;28;20072;-75
2021/08/26 02:49:20;;;;;;;4.38;2.63;;;8.50;99.90;;;;;;5052524;28;20021;-75
2021/08/26 02:51:46;;;;;;;3.22;2.30;;;8.50;99.90;;;;;;5052459;28;20032;-75
2021/08/26 02:54:11;;;;;;;5.32;3.40;;;8.50;99.90;;;;;;5052414;28;20047;-75
2021/08/26 02:56:37;;;;;;;5.10;2.72;;;8.50;99.90;;;;;;5052353;28;20397;-75
2021/08/26 02:59:03;;;;;;;6.78;2.60;;;8.50;99.90;;;;;;5052354;28;20072;-75
2021/08/26 03:01:29;;;;;;;5.80;2.70;;;8.50;99.90;;;;;;5052163;28;20040;-75
2021/08/26 03:03:54;;;;;;;5.90;2.70;;;8.50;99.90;;;;;;5052164;28;20071;-76
2021/08/26 03:06:20;;;;;;;6.03;2.85;;;8.50;99.90;;;;;;5052532;28;20046;-76
2021/08/26 03:08:46;;;;;;;4.25;2.47;;;8.50;99.90;;;;;;5052083;28;20431;-75
2021/08/26 03:11:11;;;;;;;3.78;2.88;;;8.50;99.90;;;;;;5052216;28;20415;-75
2021/08/26 03:13:38;;;;;;;4.35;2.65;;;8.40;99.90;;;;;;5052035;28;20032;-75
2021/08/26 03:16:05;;;;;;;4.70;3.03;;;8.50;99.90;;;;;;5052093;28;20031;-76
2021/08/26 03:18:31;;;;;;;4.00;2.28;;;8.50;99.90;;;;;;5051951;28;20435;-76
2021/08/26 03:20:57;;;;;;;4.05;2.30;;;8.50;99.90;;;;;;5052233;28;20029;-76
2021/08/26 03:23:23;;;;;;;5.82;2.97;;;8.40;99.90;;;;;;5052339;28;20357;-76
2021/08/26 03:25:49;;;;;;;5.15;2.45;;;8.40;99.90;;;;;;5052245;28;20396;-76
2021/08/26 03:28:17;;;;;;;3.95;2.50;;;8.40;99.90;;;;;;5052046;28;20021;-75
2021/08/26 03:30:43;;;;;;;3.92;2.50;;;8.50;99.90;;;;;;5052251;28;20086;-75
2021/08/26 03:33:09;;;;;;;5.45;2.88;;;8.50;99.90;;;;;;5052388;28;20107;-75
2021/08/26 03:35:35;;;;;;;3.97;2.35;;;8.50;99.90;;;;;;5052084;28;20496;-75
2021/08/26 03:38:01;;;;;;;4.63;2.42;;;8.50;99.90;;;;;;5052355;28;20060;-75
2021/08/26 03:40:26;;;;;;;3.60;2.53;;;8.50;99.90;;;;;;5052151;28;20392;-75
2021/08/26 03:42:52;;;;;;;3.95;2.67;;;8.50;99.90;;;;;;5051947;28;20453;-75
2021/08/26 03:45:18;;;;;;;5.32;2.65;;;8.50;99.90;;;;;;5051680;28;20114;-75
2021/08/26 03:47:44;;;;;;;7.18;2.78;;;8.50;99.90;;;;;;5051967;28;20033;-76
2021/08/26 03:50:09;;;;;;;4.45;2.65;;;8.50;99.90;;;;;;5051731;28;20056;-75
2021/08/26 03:52:35;;;;;;;7.03;2.80;;;8.50;99.90;;;;;;5051984;28;20025;-75
2021/08/26 03:55:01;;;;;;;5.43;2.88;;;8.50;99.90;;;;;;5051511;28;20049;-74
2021/08/26 03:57:26;;;;;;;4.50;2.53;;;8.50;99.90;;;;;;5051766;28;20052;-74
2021/08/26 03:59:52;;;;;;;4.60;2.53;;;8.50;99.90;;;;;;5051451;28;20021;-74
2021/08/26 04:02:18;;;;;;;4.50;2.83;;;8.50;99.90;;;;;;5052086;28;20022;-74
2021/08/26 04:04:43;;;;;;;6.22;3.15;;;8.50;99.90;;;;;;5051589;28;20028;-74
2021/08/26 04:07:09;;;;;;;4.97;2.53;;;8.50;99.90;;;;;;5051898;28;20052;-74
2021/08/26 04:09:35;;;;;;;6.40;3.00;;;8.50;99.90;;;;;;5051422;28;20055;-74
2021/08/26 04:12:01;;;;;;;7.57;3.20;;;8.50;99.90;;;;;;5051442;28;20029;-74
2021/08/26 04:14:26;;;;;;;4.57;2.80;;;8.50;99.90;;;;;;5052936;28;20021;-74
2021/08/26 04:16:52;;;;;;;8.52;2.83;;;8.50;99.90;;;;;;5055160;28;20100;-74
2021/08/26 04:19:18;;;;;;;10.80;2.90;;;8.50;99.90;;;;;;5055374;28;20029;-74
2021/08/26 04:21:43;;;;;;;6.00;3.25;;;8.60;99.90;;;;;;5055507;28;20069;-74
2021/08/26 04:24:09;;;;;;;4.35;2.38;;;8.60;99.90;;;;;;5055531;28;20029;-75
2021/08/26 04:26:35;;;;;;;5.68;2.60;;;8.50;99.90;;;;;;5055164;28;20037;-75
2021/08/26 04:29:00;;;;;;;7.53;3.05;;;8.50;99.90;;;;;;5055509;28;20021;-75
2021/08/26 04:31:26;;;;;;;4.50;3.05;;;8.50;99.90;;;;;;5055556;28;20024;-72
2021/08/26 04:33:52;;;;;;;5.07;2.60;;;8.60;99.90;;;;;;5055025;28;20416;-72
2021/08/26 04:36:18;;;;;;;4.07;2.60;;;8.50;99.90;;;;;;5055387;28;20048;-71
2021/08/26 04:38:43;;;;;;;6.55;2.28;;;8.70;99.90;;;;;;5055122;28;20024;-72
2021/08/26 04:41:09;;;;;;;6.25;2.42;;;9.40;99.90;;;;;;5055272;28;20447;-73
2021/08/26 04:43:35;;;;;;;5.60;2.67;;;10.40;99.90;;;;;;5054707;28;20618;-73
2021/08/26 04:46:00;;;;;;;3.65;2.38;;;10.10;99.90;;;;;;5054804;28;20041;-72
2021/08/26 04:48:26;;;;;;;4.32;2.50;;;9.70;99.90;;;;;;5062853;28;20055;-74
2021/08/26 04:50:52;;;;;;;4.35;2.60;;;9.40;99.90;;;;;;5063685;28;20025;-74
2021/08/26 04:53:17;;;;;;;3.58;2.47;;;9.20;99.90;;;;;;5057918;28;20041;-73
2021/08/26 04:55:43;;;;;;;4.95;2.80;;;9.10;99.90;;;;;;5065931;28;20052;-73
2021/08/26 04:58:09;;;;;;;9.25;3.30;;;9.10;99.90;;;;;;5063578;28;20566;-75
2021/08/26 05:00:34;;;;;;;8.05;2.75;;;9.10;99.90;;;;;;5065479;28;20027;-75
2021/08/26 05:03:00;;;;;;;5.93;2.83;;;9.20;99.90;;;;;;5062293;28;20461;-75
2021/08/26 05:05:26;;;;;;;4.63;2.55;;;9.30;99.90;;;;;;5063038;28;20495;-74
2021/08/26 05:07:51;;;;;;;4.57;2.72;;;9.30;99.90;;;;;;5064771;28;20071;-74
2021/08/26 05:10:17;;;;;;;4.95;2.55;;;9.30;99.90;;;;;;5064031;28;20025;-74
2021/08/26 05:12:43;;;;;;;8.35;2.97;;;9.40;99.90;;;;;;5062491;28;20024;-75
2021/08/26 05:15:09;;;;;;;4.25;3.03;;;9.40;99.90;;;;;;5062034;28;20715;-76
2021/08/26 05:17:34;;;;;;;4.50;2.60;;;9.30;99.90;;;;;;5056851;28;20028;-77
2021/08/26 05:20:00;;;;;;;6.25;2.80;;;9.20;99.90;;;;;;5061631;28;20025;-78
2021/08/26 05:22:26;;;;;;;4.60;2.58;;;9.20;99.90;;;;;;5062656;28;20103;-77
2021/08/26 05:24:52;;;;;;;4.28;2.70;;;9.20;99.90;;;;;;5063850;28;20027;-77
2021/08/26 05:27:21;;;;;;;4.68;2.78;;;9.30;99.90;;;;;;5069997;28;20032;-75
2021/08/26 05:29:46;;;;;;;3.90;2.53;;;9.30;99.90;;;;;;5073637;28;20048;-77
2021/08/26 05:32:12;;;;;;;6.07;2.90;;;9.40;99.90;;;;;;5072604;28;20494;-76
2021/08/26 05:34:38;;;;;;;4.30;3.00;;;9.40;99.90;;;;;;5072825;28;20017;-76
2021/08/26 05:37:04;;;;;;;6.80;3.00;;;9.40;99.90;;;;;;5074052;28;20027;-78
2021/08/26 05:39:29;;;;;;;4.72;2.58;;;9.40;99.90;;;;;;5073982;28;20025;-80
2021/08/26 05:41:56;;;;;;;4.93;2.70;;;9.30;99.90;;;;;;5073783;28;20891;-77
2021/08/26 05:44:21;;;;;;;4.88;2.85;;;9.30;99.90;;;;;;5073382;28;20117;-77
2021/08/26 05:46:47;;;;;;;5.70;3.50;;;9.50;99.90;;;;;;5073212;28;20484;-77
2021/08/26 05:49:13;;;;;;;5.03;2.65;;;9.50;99.90;;;;;;5073404;28;20025;-76
2021/08/26 05:51:39;;;;;;;4.70;2.80;;;9.60;99.90;;;;;;5073180;28;20056;-77
2021/08/26 05:54:05;;;;;;;6.45;2.80;;;9.70;99.90;;;;;;5072983;28;20044;-76
2021/08/26 05:56:31;;;;;;;5.30;2.47;;;9.60;99.90;;;;;;5073309;28;20457;-76
2021/08/26 05:58:57;;;;;;;4.47;2.63;;;9.60;99.90;;;;;;5073158;28;20367;-77
2021/08/26 06:01:27;;;;;;;4.53;2.72;;;9.50;99.90;;;;;;5073159;28;20051;-77
2021/08/26 06:03:53;;;;;;;;;;;9.50;99.90;;;;;;5073540;28;20092;-77
2021/08/26 06:06:19;;;;;;;6.03;3.30;;;9.60;99.90;;;;;;5073364;28;19916;-78
2021/08/26 06:08:45;;;;;;;8.02;2.53;;;9.50;99.90;;;;;;5073114;28;20499;-79
2021/08/26 06:11:11;;;;;;;4.53;2.95;;;9.60;99.90;;;;;;5073298;28;20111;-72
2021/08/26 06:13:36;;;;;;;7.20;2.90;;;9.50;99.90;;;;;;5073188;28;20051;-76
2021/08/26 06:16:02;;;;;;;4.63;2.58;;;9.60;99.90;;;;;;5072976;28;20383;-73
2021/08/26 06:18:29;;;;;;;4.25;2.80;;;10.20;99.90;;;;;;5073445;28;20024;-75
2021/08/26 06:20:55;;;;;;;5.25;2.72;;;10.10;99.90;;;;;;5072710;28;20032;-72
2021/08/26 06:23:21;;;;;;;6.72;2.90;;;9.90;99.90;;;;;;5072636;28;20031;-73
2021/08/26 06:25:47;;;;;;;3.78;2.70;;;9.80;99.90;;;;;;5072482;28;20033;-73
2021/08/26 06:28:13;;;;;;;6.28;3.00;;;9.80;99.90;;;;;;5072759;28;20361;-72
2021/08/26 06:30:38;;;;;;;5.50;3.00;;;9.70;99.90;;;;;;5072678;28;20036;-71
2021/08/26 06:33:04;;;;;;;6.80;3.15;;;9.70;99.90;;;;;;5072710;28;20021;-71
2021/08/26 06:35:30;;;;;;;5.15;2.55;;;9.70;99.90;;;;;;5072827;28;20047;-72
2021/08/26 06:37:56;;;;;;;5.82;3.00;;;9.70;99.90;;;;;;5071992;28;20025;-74
2021/08/26 06:40:22;;;;;;;4.47;2.55;;;9.90;99.90;;;;;;5069535;28;20477;-74
2021/08/26 06:42:47;;;;;;;5.00;2.85;;;9.80;99.90;;;;;;5055677;28;20057;-74
2021/08/26 06:45:13;;;;;;;4.45;2.80;;;9.80;99.90;;;;;;5052614;28;20028;-74
2021/08/26 06:47:39;;;;;;;5.30;2.95;;;9.80;99.90;;;;;;5052402;28;20465;-74
2021/08/26 06:50:05;;;;;;;4.50;2.90;;;9.80;99.90;;;;;;5052186;28;20033;-75
2021/08/26 06:52:31;;;;;;;5.13;2.80;;;9.80;99.90;;;;;;5052185;28;20037;-75
2021/08/26 06:54:57;;;;;;;4.00;2.47;;;9.80;99.90;;;;;;5052173;28;20124;-85
2021/08/26 06:57:27;;;;;;;4.68;2.90;;;9.80;99.90;;;;;;5052343;28;20575;-81
2021/08/26 06:59:53;;;;;;;;;;;9.80;99.90;;;;;;5060338;28;20488;-82
2021/08/26 07:02:19;;;;;;;4.32;2.80;;;9.80;99.90;;;;;;5052491;28;19954;-82
2021/08/26 07:04:44;;;;;;;7.63;3.17;;;9.80;99.90;;;;;;5054468;28;20271;-76
2021/08/26 07:07:10;;;;;;;4.00;2.72;;;9.80;99.90;;;;;;5061592;28;20037;-78
2021/08/26 07:09:36;;;;;;;8.20;2.90;;;9.80;99.90;;;;;;5064108;28;20376;-76
2021/08/26 07:12:02;;;;;;;6.95;3.35;;;9.80;99.90;;;;;;5062311;28;20062;-78
2021/08/26 07:14:27;;;;;;;7.07;2.72;;;9.80;99.90;;;;;;5060887;28;20492;-73
2021/08/26 07:16:53;;;;;;;6.60;3.22;;;9.80;99.90;;;;;;5059873;28;20075;-75
2021/08/26 07:19:19;;;;;;;5.72;3.35;;;9.80;99.90;;;;;;5061805;28;20036;-77
2021/08/26 07:21:45;;;;;;;5.50;2.97;;;9.80;99.90;;;;;;5054930;28;20480;-78
2021/08/26 07:24:10;;;;;;;8.05;2.83;;;9.80;99.90;;;;;;5065993;28;20119;-73
2021/08/26 07:26:36;;;;;;;4.55;2.40;;;10.20;99.90;;;;;;5071853;28;20036;-71
2021/08/26 07:29:02;;;;;;;5.55;2.55;;;10.30;99.90;;;;;;5071710;28;20021;-71
2021/08/26 07:31:28;;;;;;;4.97;2.97;;;10.20;99.90;;;;;;5072200;28;20102;-71
2021/08/26 07:33:53;;;;;;;5.30;3.08;;;10.10;99.90;;;;;;5071824;28;20028;-71
2021/08/26 07:36:19;;;;;;;4.65;2.75;;;10.10;99.90;;;;;;5069128;28;20108;-71
2021/08/26 07:38:45;;;;;;;5.03;2.50;;;10.00;99.90;;;;;;5071556;28;20024;-71
2021/08/26 07:41:10;;;;;;;6.00;2.90;;;10.10;99.90;;;;;;5071881;28;20020;-72
2021/08/26 07:43:36;;;;;;;9.23;3.50;;;10.00;99.90;;;;;;5071935;28;20021;-71
2021/08/26 07:46:03;;;;;;;5.93;3.28;;;10.00;99.90;;;;;;5071462;28;20033;-71
2021/08/26 07:48:29;;;;;;;7.07;3.20;;;10.10;99.90;;;;;;5071723;28;20056;-71
2021/08/26 07:50:57;;;;;;;5.50;2.90;;;10.10;99.90;;;;;;5075629;28;20191;-71
2021/08/26 07:53:23;;;;;;;3.50;2.60;;;10.10;99.90;;;;;;5075902;28;20447;-71
2021/08/26 07:55:49;;;;;;;5.45;2.88;;;10.10;99.90;;;;;;5071753;28;20038;-71
2021/08/26 07:58:42;;;;;;;5.38;3.20;;;10.10;99.90;;;;;;5061261;28;20465;-78
2021/08/26 08:01:08;;;;;;;5.93;3.20;;;10.20;99.90;;;;;;5055585;28;20032;-72
2021/08/26 08:03:33;;;;;;;8.18;2.38;;;10.20;99.90;;;;;;5055662;28;20111;-72
2021/08/26 08:06:03;;;;;;;4.80;2.45;;;10.20;99.90;;;;;;5070430;28;20507;-80
2021/08/26 08:08:29;;;;;;;5.22;3.03;;;10.40;99.90;;;;;;5075497;28;20050;-79
2021/08/26 08:10:55;;;;;;;6.28;2.90;;;10.40;99.90;;;;;;5075329;28;20082;-78
2021/08/26 08:13:21;;;;;;;6.28;3.20;;;10.40;99.90;;;;;;5075308;28;20024;-81
2021/08/26 08:15:46;;;;;;;5.38;2.45;;;10.50;99.90;;;;;;5075585;28;20438;-81
2021/08/26 08:18:12;;;;;;;5.50;2.92;;;10.70;99.90;;;;;;5075261;28;20022;-78
2021/08/26 08:20:39;;;;;;;6.85;2.90;;;10.70;99.90;;;;;;5075616;28;20028;-78
2021/08/26 08:23:06;;;;;;;5.90;2.67;;;11.60;99.90;;;;;;5073766;28;20395;-75
2021/08/26 08:25:31;;;;;;;4.68;2.85;;;11.90;99.90;;;;;;5075134;28;20033;-78
2021/08/26 08:27:57;;;;;;;6.75;2.92;;;11.60;99.90;;;;;;5074874;28;20036;-77
2021/08/26 08:30:26;;;;;;;5.07;2.70;;;11.30;99.90;;;;;;5072200;28;20466;-76
2021/08/26 08:32:55;;;;;;;7.28;3.00;;;11.10;99.90;;;;;;5074941;28;20024;-75
2021/08/26 08:35:22;;;;;;;3.67;2.72;;;11.00;99.90;;;;;;5073448;28;20032;-74
2021/08/26 08:37:48;;;;;;;4.78;2.75;;;11.00;99.90;;;;;;5074922;28;20031;-71
2021/08/26 08:40:14;;;;;;;6.10;3.08;;;11.00;99.90;;;;;;5070649;28;20021;-70
2021/08/26 08:42:40;;;;;;;6.88;2.80;;;11.00;99.90;;;;;;5054852;28;20021;-74
2021/08/26 08:45:06;;;;;;;5.18;2.60;;;11.10;99.90;;;;;;5056059;28;20152;-71
2021/08/26 08:47:34;;;;;;;4.40;2.67;;;11.10;99.90;;;;;;5058819;28;20025;-73
2021/08/26 08:50:01;;;;;;;5.03;2.90;;;11.20;99.90;;;;;;5054423;28;20034;-73
2021/08/26 08:52:26;;;;;;;5.35;2.50;;;11.70;99.90;;;;;;5054733;28;20103;-74
2021/08/26 08:54:53;;;;;;;5.35;2.92;;;12.00;99.90;;;;;;5054362;28;20045;-74
2021/08/26 08:57:22;;;;;;;7.25;2.35;;;11.70;99.90;;;;;;5054641;28;20033;-73
2021/08/26 08:59:48;;;;;;;4.72;2.70;;;11.60;99.90;;;;;;5053801;28;20025;-75
2021/08/26 09:02:13;;;;;;;5.05;2.92;;;12.10;99.90;;;;;;5058103;28;20108;-73
2021/08/26 09:05:09;;;;;;;6.47;2.70;;;11.90;99.90;;;;;;5068770;28;20021;-74
2021/08/26 09:07:35;;;;;;;6.40;3.08;;;11.60;99.90;;;;;;5073931;28;20044;-74
2021/08/26 09:10:02;;;;;;;4.75;2.80;;;11.30;99.90;;;;;;5074295;28;20494;-73
2021/08/26 09:12:43;;;;;;;5.00;2.83;;;11.30;99.90;;;;;;5074683;28;20034;-72
2021/08/26 09:15:35;;;;;;;4.50;2.85;;;11.20;99.90;;;;;;5074410;28;20035;-71
2021/08/26 09:18:28;;;;;;;8.23;2.80;;;11.10;99.90;;;;;;5073862;28;20024;-72
2021/08/26 09:20:57;;;;;;;3.95;2.63;;;11.10;99.90;;;;;;5055701;28;20037;-73
2021/08/26 09:23:24;;;;;;;5.82;2.78;;;11.10;99.90;;;;;;5054183;28;20055;-70
2021/08/26 09:25:52;;;;;;;4.82;3.05;;;11.10;99.90;;;;;;5058387;28;20041;-73
2021/08/26 09:28:29;;;;;;;7.47;2.80;;;11.10;99.90;;;;;;5059930;28;20021;-73
2021/08/26 09:31:25;;;;;;;5.97;2.78;;;11.10;99.90;;;;;;5070290;28;20040;-73
2021/08/26 09:34:26;;;;;;;4.93;3.10;;;11.10;99.90;;;;;;5065245;28;20492;-73
2021/08/26 09:36:54;;;;;;;5.05;2.83;;;11.20;99.90;;;;;;5053445;28;20029;-72
2021/08/26 09:39:30;;;;;;;7.07;2.47;;;11.20;99.90;;;;;;5057206;28;20057;-72
2021/08/26 09:42:03;;;;;;;3.83;2.75;;;11.20;99.90;;;;;;5053666;28;20032;-72
2021/08/26 09:44:36;;;;;;;5.93;3.08;;;11.30;99.90;;;;;;5074047;28;20040;-71
2021/08/26 09:47:07;;;;;;;4.70;2.63;;;11.30;99.90;;;;;;5073644;28;20036;-71
2021/08/26 09:49:39;;;;;;;4.90;2.65;;;11.30;99.90;;;;;;5066262;28;20468;-71
2021/08/26 09:52:16;;;;;;;4.90;2.85;;;11.30;99.90;;;;;;5053501;28;20075;-74
2021/08/26 09:54:49;;;;;;;6.50;2.72;;;11.30;99.90;;;;;;5070844;28;20045;-74
2021/08/26 09:57:25;;;;;;;6.20;3.17;;;11.30;99.90;;;;;;5055854;28;20029;-73
2021/08/26 09:59:52;;;;;;;4.68;2.88;;;11.30;99.90;;;;;;5072442;28;20017;-71
2021/08/26 10:02:19;;;;;;;7.13;3.30;;;11.30;99.90;;;;;;5059924;28;20029;-71
2021/08/26 10:04:46;;;;;;;5.55;2.97;;;11.40;99.90;;;;;;5053696;28;20021;-74
2021/08/26 10:07:12;;;;;;;6.78;3.13;;;11.40;99.90;;;;;;5053321;28;20044;-74
2021/08/26 10:09:40;;;;;;;8.30;3.42;;;11.40;99.90;;;;;;5061181;28;20016;-75
2021/08/26 10:12:07;;;;;;;7.78;3.45;;;11.40;99.90;;;;;;5059991;28;20029;-75
2021/08/26 10:14:33;;;;;;;6.57;3.28;;;11.40;99.90;;;;;;5053154;28;20028;-76
2021/08/26 10:17:01;;;;;;;8.98;3.90;;;11.40;99.90;;;;;;5052766;28;20059;-75
2021/08/26 10:19:27;;;;;;;7.78;3.08;;;11.70;99.90;;;;;;5053099;28;20021;-76
2021/08/26 10:21:53;;;;;;;6.40;2.88;;;11.90;99.90;;;;;;5052697;28;20090;-76
2021/08/26 10:24:21;;;;;;;3.58;2.40;;;11.80;99.90;;;;;;5053250;28;20076;-76
2021/08/26 10:26:51;;;;;;;7.90;3.28;;;11.70;99.90;;;;;;5052808;28;20045;-76
2021/08/26 10:29:20;;;;;;;6.45;2.88;;;11.60;99.90;;;;;;5053006;28;20021;-76
2021/08/26 10:32:17;;;;;;;5.67;2.80;;;11.60;99.90;;;;;;5053090;28;20103;-76
2021/08/26 10:35:08;;;;;;;4.70;3.10;;;11.60;99.90;;;;;;5052693;28;20270;-76
2021/08/26 10:37:55;;;;;;;5.93;3.10;;;11.60;99.90;;;;;;5053174;28;20033;-76
2021/08/26 10:40:34;;;;;;;8.55;3.65;;;11.50;99.90;;;;;;5052687;28;20025;-76
2021/08/26 10:43:01;;;;;;;7.45;2.95;;;11.50;99.90;;;;;;5052781;28;20036;-76
2021/08/26 10:45:29;;;;;;;6.65;3.10;;;11.50;99.90;;;;;;5052284;28;20075;-76
2021/08/26 10:48:00;;;;;;;10.20;2.97;;;11.50;99.90;;;;;;5052235;28;20033;-76
2021/08/26 10:50:32;;;;;;;6.32;2.75;;;11.50;99.90;;;;;;5052700;28;20029;-76
2021/08/26 10:53:10;;;;;;;7.45;3.25;;;11.50;99.90;;;;;;5052083;28;20017;-76
2021/08/26 10:55:45;;;;;;;5.68;2.65;;;11.60;99.90;;;;;;5052693;28;20036;-76
2021/08/26 10:58:23;;;;;;;6.68;3.60;;;11.60;99.90;;;;;;5052511;28;20418;-76
2021/08/26 11:00:50;;;;;;;5.47;2.95;;;11.70;99.90;;;;;;5051983;28;20055;-79
2021/08/26 11:06:18;;;;;;;5.90;3.47;;;11.80;99.90;;;;;;5052246;28;20121;-76
2021/08/26 11:08:51;;;;;;;5.45;2.58;;;11.80;99.90;;;;;;5052563;28;20031;-76
2021/08/26 11:13:53;;;;;;;7.60;2.88;;;11.90;99.90;;;;;;5052339;28;20025;-76
2021/08/26 11:16:24;;;;;;;12.63;3.42;;;11.80;99.90;;;;;;5052023;28;20115;-76
2021/08/26 11:18:51;;;;;;;6.68;2.65;;;11.80;99.90;;;;;;5051791;28;20025;-76
2021/08/26 11:21:45;;;;;;;7.25;3.05;;;11.90;99.90;;;;;;5052083;28;20036;-76
2021/08/26 11:24:31;;;;;;;12.73;3.45;;;11.90;99.90;;;;;;5051967;28;20025;-76
2021/08/26 11:27:22;;;;;;;4.97;2.55;;;11.90;99.90;;;;;;5051528;28;20484;-76
2021/08/26 11:29:50;;;;;;;4.07;2.40;;;11.80;99.90;;;;;;5051765;28;20029;-76
2021/08/26 11:32:18;;;;;;;6.15;2.63;;;11.80;99.90;;;;;;5051702;28;20389;-76
2021/08/26 11:34:50;;;;;;;4.07;2.40;;;11.80;99.90;;;;;;5052138;28;20025;-76
2021/08/26 11:37:30;;;;;;;10.95;3.03;;;11.90;99.90;;;;;;5051950;28;20075;-76
2021/08/26 11:40:04;;;;;;;4.00;2.72;;;11.90;99.90;;;;;;5051859;28;20111;-76
2021/08/26 11:42:39;;;;;;;3.67;2.53;;;12.00;99.90;;;;;;5051772;28;20058;-76
2021/08/26 11:45:27;;;;;;;6.25;2.65;;;12.00;99.90;;;;;;5051731;28;20025;-78
2021/08/26 11:48:02;;;;;;;5.97;2.45;;;12.00;99.90;;;;;;5051624;28;20083;-77
2021/08/26 11:50:31;;;;;;;5.43;2.53;;;12.00;99.90;;;;;;5051653;28;20029;-77
2021/08/26 11:52:59;;;;;;;7.72;2.80;;;12.00;99.90;;;;;;5051585;28;20021;-77
2021/08/26 11:55:27;;;;;;;6.40;2.78;;;12.00;99.90;;;;;;5051816;28;20037;-77
2021/08/26 11:58:04;;;;;;;4.53;2.55;;;12.00;99.90;;;;;;5051525;28;20032;-77
2021/08/26 12:00:30;;;;;;;4.72;2.65;;;12.00;99.90;;;;;;5051535;28;20029;-77
2021/08/26 12:02:58;;;;;;;5.03;2.72;;;12.10;99.90;;;;;;5051082;28;20025;-77
2021/08/26 12:05:25;;;;;;;6.50;2.88;;;12.20;99.90;;;;;;5051439;28;20060;-77
2021/08/26 12:07:53;;;;;;;6.75;2.70;;;12.20;99.90;;;;;;5051228;28;20029;-77
2021/08/26 12:10:32;;;;;;;6.68;2.55;;;12.20;99.90;;;;;;5051324;28;20029;-77
2021/08/26 12:13:02;;;;;;;8.73;3.42;;;12.20;99.90;;;;;;5051216;28;20499;-77
2021/08/26 12:15:36;;;;;;;6.40;3.03;;;12.20;99.90;;;;;;5051721;28;20052;-77
2021/08/26 12:18:05;;;;;;;8.10;2.80;;;12.30;99.90;;;;;;5051440;28;20025;-77
2021/08/26 12:20:34;;;;;;;6.13;3.10;;;12.30;99.90;;;;;;5051365;28;20028;-77
2021/08/26 12:23:00;;;;;;;5.88;3.20;;;12.30;99.90;;;;;;5051039;28;20032;-77
2021/08/26 12:26:05;;;;;;;4.05;2.70;;;12.30;99.90;;;;;;5051555;28;20122;-78
2021/08/26 12:28:36;;;;;;;8.20;2.97;;;12.30;99.90;;;;;;5051476;28;20025;-77
2021/08/26 12:31:07;;;;;;;3.92;2.40;;;12.30;99.90;;;;;;5051144;28;20025;-77
2021/08/26 12:33:33;;;;;;;8.23;3.03;;;12.30;99.90;;;;;;5051338;28;20546;-77
2021/08/26 12:36:01;;;;;;;3.65;2.50;;;12.30;99.90;;;;;;5053309;28;20033;-77
2021/08/26 12:38:33;;;;;;;6.22;3.00;;;12.30;99.90;;;;;;5055197;28;20052;-77
2021/08/26 12:41:00;;;;;;;4.70;3.08;;;12.30;99.90;;;;;;5054909;28;20485;-77
2021/08/26 12:43:40;;;;;;;4.20;3.00;;;12.30;99.90;;;;;;5055027;28;20124;-77
2021/08/26 12:46:10;;;;;;;9.77;3.92;;;12.40;99.90;;;;;;5055012;28;20433;-77
2021/08/26 12:48:38;;;;;;;9.65;3.58;;;12.40;99.90;;;;;;5054911;28;20373;-77
2021/08/26 12:51:09;;;;;;;9.23;2.38;;;12.40;99.90;;;;;;5054613;28;20043;-73
2021/08/26 12:53:37;;;;;;;5.82;2.92;;;12.70;99.90;;;;;;5054875;28;20068;-69
2021/08/26 12:56:15;;;;;;;4.93;2.80;;;12.90;99.90;;;;;;5063552;28;20020;-69
2021/08/26 12:58:55;;;;;;;8.25;2.80;;;12.80;99.90;;;;;;5068957;28;20570;-71
2021/08/26 13:01:24;;;;;;;5.20;3.00;;;12.70;99.90;;;;;;5074731;28;20463;-72
2021/08/26 13:03:52;;;;;;;6.00;2.85;;;12.60;99.90;;;;;;5073154;28;20120;-72
2021/08/26 13:06:38;;;;;;;6.10;3.00;;;12.50;99.90;;;;;;5074640;28;20040;-72
2021/08/26 13:09:08;;;;;;;4.13;2.60;;;12.50;99.90;;;;;;5074576;28;20107;-71
2021/08/26 13:11:53;;;;;;;4.45;2.63;;;12.50;99.90;;;;;;5074724;28;20125;-71
2021/08/26 13:14:18;;;;;;;6.13;2.78;;;12.50;99.90;;;;;;5074503;28;20463;-71
2021/08/26 13:16:44;;;;;;;7.13;2.40;;;12.50;99.90;;;;;;5074377;28;20024;-71
2021/08/26 13:19:10;;;;;;;5.60;2.50;;;12.50;99.90;;;;;;5074136;28;20444;-71
2021/08/26 13:21:36;;;;;;;6.00;2.60;;;12.50;99.90;;;;;;5074223;28;20561;-72
2021/08/26 13:24:02;;;;;;;6.13;3.28;;;12.50;99.90;;;;;;5074040;28;20422;-71
2021/08/26 13:26:28;;;;;;;7.55;2.85;;;12.50;99.90;;;;;;5074333;28;20068;-71
2021/08/26 13:28:54;;;;;;;4.72;2.90;;;12.50;99.90;;;;;;5073939;28;20098;-71
2021/08/26 13:31:20;;;;;;;6.45;2.40;;;12.60;99.90;;;;;;5070631;28;20048;-72
2021/08/26 13:33:47;;;;;;;10.77;2.72;;;12.60;99.90;;;;;;5074051;28;20028;-72
2021/08/26 13:36:13;;;;;;;5.50;2.75;;;12.60;99.90;;;;;;5062084;28;20108;-72
2021/08/26 13:38:39;;;;;;;6.82;2.63;;;12.50;99.90;;;;;;5063628;28;20024;-71
2021/08/26 13:41:06;;;;;;;3.53;2.30;;;12.50;99.90;;;;;;5063995;28;20036;-70